KACK

Nantucket Memorial Airport

Nantucket, Massachusetts, USA
METAR KACK 140053Z 08005KT 10SM FEW085 BKN120 M01/M04 A3056 RMK AO2 SLP347 T10111044
Observed Flight Rules
Dec-14 @ 00:53 UTC (26 minutes ago) Visual Flight Rules
Wind Visibility Clouds
80° at 5 knots 10 miles
  • Few at 8,500' AGL
  • Broken at 12,000' AGL
Temperatures Readings
Current -1°C / 30°F
Dewpoint -4°C / 25°F
Humidity 80%
Altimeter 30.56" Hg
Pressure 1034.7 hPa
Elevation 16
METAR KACK 140053Z 08005KT 10SM FEW085 BKN120 M01/M04 A3056 RMK AO2 SLP347 T10111044
Observed Flight Rules
Dec-14 @ 00:53 UTC
(26 minutes ago)
VFR
Wind Visibility
80° at 5 knots 10 miles
Clouds
  • Few at 8,500' AGL
  • Broken at 12,000' AGL
Temperature Dewpoint
-1°C / 30°F -4°C / 25°F
Humidity Altimeter Pressure
80% 30.56" Hg 1034.7 hPa